createdAt,value
2023-04-16T00:01:14.655Z,101515.63
2023-04-16T00:03:41.284Z,101514.72
2023-04-16T00:06:07.853Z,101517.28
2023-04-16T00:08:35.731Z,101512.09
2023-04-16T00:11:02.045Z,101515.56
2023-04-16T00:13:28.380Z,101518.97
2023-04-16T00:15:54.742Z,101521.50
2023-04-16T00:18:21.402Z,101521.66
2023-04-16T00:20:48.468Z,101513.00
2023-04-16T00:23:14.754Z,101510.47
2023-04-16T00:25:41.120Z,101513.00
2023-04-16T00:28:08.327Z,101512.09
2023-04-16T00:30:35.409Z,101507.06
2023-04-16T00:33:02.806Z,101514.91
2023-04-16T00:35:29.111Z,101510.56
2023-04-16T00:37:55.617Z,101513.97
2023-04-16T00:40:21.984Z,101503.69
2023-04-16T00:42:48.296Z,101508.84
2023-04-16T00:45:14.619Z,101508.88
2023-04-16T00:47:40.966Z,101513.19
2023-04-16T00:50:07.820Z,101505.50
2023-04-16T00:52:34.590Z,101503.78
2023-04-16T00:55:01.108Z,101508.13
2023-04-16T00:57:27.848Z,101504.72
2023-04-16T00:59:54.632Z,101497.00
2023-04-16T01:02:21.149Z,101508.25
2023-04-16T01:04:47.569Z,101501.38
2023-04-16T01:07:13.889Z,101501.41
2023-04-16T01:09:40.202Z,101503.97
2023-04-16T01:12:06.484Z,101504.88
2023-04-16T01:14:36.153Z,101498.91
2023-04-16T01:17:03.815Z,101502.34
2023-04-16T01:19:36.151Z,101510.25
2023-04-16T01:22:03.982Z,101502.47
2023-04-16T01:24:31.043Z,101505.94
2023-04-16T01:26:59.019Z,101507.59
2023-04-16T01:29:25.809Z,101500.75
2023-04-16T01:31:52.446Z,101506.75
2023-04-16T01:34:18.794Z,101504.19
2023-04-16T01:36:45.264Z,101511.09
2023-04-16T01:39:15.371Z,101505.97
2023-04-16T01:41:42.092Z,101511.09
2023-04-16T01:44:08.374Z,101522.28
2023-04-16T01:46:38.190Z,101509.38
2023-04-16T01:49:05.192Z,101525.72
2023-04-16T01:51:32.168Z,101523.28
2023-04-16T01:53:59.032Z,101530.94
2023-04-16T01:56:25.637Z,101529.13
2023-04-16T01:58:52.635Z,101526.56
2023-04-16T02:01:19.159Z,101527.38
2023-04-16T02:03:46.088Z,101532.53
2023-04-16T02:06:12.558Z,101528.28
2023-04-16T02:08:38.837Z,101534.31
2023-04-16T02:11:05.239Z,101531.81
2023-04-16T02:13:31.629Z,101530.06
2023-04-16T02:15:58.293Z,101540.44
2023-04-16T02:18:24.648Z,101542.19
2023-04-16T02:20:50.973Z,101536.97
2023-04-16T02:23:17.398Z,101539.56
2023-04-16T02:25:45.917Z,101541.25
2023-04-16T02:28:14.505Z,101549.06
2023-04-16T02:30:41.687Z,101550.75
2023-04-16T02:33:10.348Z,101546.44
2023-04-16T02:35:38.327Z,101552.47
2023-04-16T02:38:05.699Z,101546.38
2023-04-16T02:40:32.196Z,101552.41
2023-04-16T02:42:58.642Z,101550.03
2023-04-16T02:45:25.276Z,101544.84
2023-04-16T02:47:51.727Z,101544.09
2023-04-16T02:50:18.163Z,101545.84
2023-04-16T02:52:44.586Z,101537.22
2023-04-16T02:55:11.416Z,101545.91
2023-04-16T02:57:37.763Z,101545.06
2023-04-16T03:00:05.025Z,101551.00
2023-04-16T03:02:31.685Z,101551.13
2023-04-16T03:04:58.078Z,101548.53
2023-04-16T03:07:24.503Z,101552.94
2023-04-16T03:09:50.841Z,101547.75
2023-04-16T03:12:17.174Z,101556.44
2023-04-16T03:14:43.479Z,101555.44
2023-04-16T03:17:09.809Z,101554.66
2023-04-16T03:19:36.131Z,101557.34
2023-04-16T03:22:02.570Z,101560.75
2023-04-16T03:24:29.410Z,101555.63
2023-04-16T03:26:57.890Z,101553.84
2023-04-16T03:29:24.645Z,101558.16
2023-04-16T03:31:50.995Z,101561.63
2023-04-16T03:34:17.337Z,101554.56
2023-04-16T03:36:43.663Z,101558.94
2023-04-16T03:39:10.133Z,101551.97
2023-04-16T03:41:36.696Z,101557.13
2023-04-16T03:44:03.186Z,101558.72
2023-04-16T03:46:29.516Z,101567.34
2023-04-16T03:48:55.878Z,101569.09
2023-04-16T03:51:22.192Z,101569.16
2023-04-16T03:53:48.490Z,101573.44
2023-04-16T03:56:14.811Z,101576.88
2023-04-16T03:58:41.069Z,101574.28
2023-04-16T04:01:07.403Z,101579.44
2023-04-16T04:03:33.782Z,101580.38
2023-04-16T04:06:00.415Z,101572.66
2023-04-16T04:08:26.803Z,101578.69
2023-04-16T04:10:53.103Z,101578.72
2023-04-16T04:13:19.472Z,101570.97
2023-04-16T04:15:45.746Z,101583.91
2023-04-16T04:18:12.026Z,101583.88
2023-04-16T04:20:41.244Z,101581.28
2023-04-16T04:23:07.622Z,101589.94
2023-04-16T04:25:33.985Z,101590.78
2023-04-16T04:28:00.558Z,101594.28
2023-04-16T04:30:26.883Z,101589.13
2023-04-16T04:32:53.239Z,101583.94
2023-04-16T04:35:19.749Z,101589.19
2023-04-16T04:37:46.366Z,101587.38
2023-04-16T04:40:12.654Z,101594.31
2023-04-16T04:42:39.101Z,101596.09
2023-04-16T04:45:05.889Z,101597.00
2023-04-16T04:47:32.210Z,101600.53
2023-04-16T04:49:58.590Z,101600.47
2023-04-16T04:52:24.913Z,101602.22
2023-04-16T04:54:52.636Z,101605.75
2023-04-16T04:57:18.945Z,101604.81
2023-04-16T04:59:45.577Z,101608.38
2023-04-16T05:02:12.105Z,101610.09
2023-04-16T05:04:38.506Z,101605.78
2023-04-16T05:07:04.881Z,101610.13
2023-04-16T05:09:31.215Z,101614.47
2023-04-16T05:11:57.531Z,101616.09
2023-04-16T05:14:24.911Z,101619.56
2023-04-16T05:16:51.343Z,101618.88
2023-04-16T05:19:17.733Z,101616.28
2023-04-16T05:21:44.137Z,101614.56
2023-04-16T05:24:10.822Z,101617.22
2023-04-16T05:26:37.912Z,101618.84
2023-04-16T05:29:04.560Z,101619.66
2023-04-16T05:31:30.880Z,101630.94
2023-04-16T05:33:57.313Z,101631.84
2023-04-16T05:36:23.580Z,101645.69
2023-04-16T05:38:49.927Z,101643.88
2023-04-16T05:41:16.201Z,101650.09
2023-04-16T05:43:42.511Z,101648.28
2023-04-16T05:46:08.878Z,101646.53
2023-04-16T05:48:35.257Z,101656.06
2023-04-16T05:51:02.627Z,101650.84
2023-04-16T05:53:29.074Z,101658.59
2023-04-16T05:55:55.566Z,101656.84
2023-04-16T05:58:21.874Z,101661.19
2023-04-16T06:00:48.275Z,101653.44
2023-04-16T06:03:14.728Z,101656.88
2023-04-16T06:05:41.412Z,101664.66
2023-04-16T06:08:07.813Z,101659.47
2023-04-16T06:10:34.139Z,101657.78
2023-04-16T06:13:00.587Z,101658.66
2023-04-16T06:15:26.897Z,101664.75
2023-04-16T06:17:54.697Z,101676.00
2023-04-16T06:20:21.361Z,101676.03
2023-04-16T06:22:47.751Z,101677.00
2023-04-16T06:25:15.719Z,101676.09
2023-04-16T06:27:43.896Z,101675.28
2023-04-16T06:30:15.739Z,101678.91
2023-04-16T06:32:43.101Z,101672.81
2023-04-16T06:35:09.745Z,101672.00
2023-04-16T06:37:36.161Z,101676.28
2023-04-16T06:40:02.547Z,101688.38
2023-04-16T06:42:29.604Z,101683.13
2023-04-16T06:44:55.969Z,101690.03
2023-04-16T06:47:22.268Z,101689.19
2023-04-16T06:49:48.589Z,101682.28
2023-04-16T06:52:14.937Z,101691.03
2023-04-16T06:54:41.262Z,101683.31
2023-04-16T06:57:07.543Z,101686.75
2023-04-16T06:59:33.916Z,101691.06
2023-04-16T07:02:00.348Z,101689.31
2023-04-16T07:04:26.812Z,101687.56
2023-04-16T07:06:53.089Z,101690.25
2023-04-16T07:09:19.426Z,101692.88
2023-04-16T07:11:46.279Z,101695.53
2023-04-16T07:14:12.617Z,101686.78
2023-04-16T07:16:38.987Z,101692.00
2023-04-16T07:19:05.452Z,101696.34
2023-04-16T07:21:32.002Z,101705.06
2023-04-16T07:23:58.296Z,101698.19
2023-04-16T07:26:24.568Z,101702.44
2023-04-16T07:28:51.145Z,101701.59
2023-04-16T07:31:17.572Z,101707.66
2023-04-16T07:33:43.985Z,101713.66
2023-04-16T07:36:10.900Z,101715.38
2023-04-16T07:38:37.240Z,101714.56
2023-04-16T07:41:03.574Z,101722.38
2023-04-16T07:43:29.853Z,101717.94
2023-04-16T07:45:56.360Z,101723.13
2023-04-16T07:48:22.683Z,101722.28
2023-04-16T07:50:50.011Z,101719.75
2023-04-16T07:53:16.305Z,101725.00
2023-04-16T07:55:42.567Z,101724.19
2023-04-16T07:58:09.505Z,101723.41
2023-04-16T08:00:35.870Z,101728.59
2023-04-16T08:03:02.465Z,101729.38
2023-04-16T08:05:29.112Z,101729.44
2023-04-16T08:07:55.581Z,101730.34
2023-04-16T08:10:22.329Z,101736.50
2023-04-16T08:12:48.963Z,101727.06
2023-04-16T08:15:15.289Z,101731.38
2023-04-16T08:17:41.669Z,101734.84
2023-04-16T08:20:08.408Z,101733.97
2023-04-16T08:22:34.748Z,101740.00
2023-04-16T08:25:01.591Z,101745.00
2023-04-16T08:27:27.883Z,101748.47
2023-04-16T08:29:54.341Z,101755.47
2023-04-16T08:32:20.853Z,101750.38
2023-04-16T08:34:47.362Z,101757.38
2023-04-16T08:37:13.729Z,101763.31
2023-04-16T08:39:40.476Z,101765.94
2023-04-16T08:42:14.017Z,101767.59
2023-04-16T08:44:49.086Z,101762.38
2023-04-16T08:47:16.315Z,101770.19
2023-04-16T08:49:46.105Z,101771.22
2023-04-16T08:52:18.309Z,101775.56
2023-04-16T08:55:08.711Z,101765.28
2023-04-16T08:57:44.328Z,101762.72
2023-04-16T09:00:11.909Z,101760.13
2023-04-16T09:02:38.874Z,101768.88
2023-04-16T09:05:07.258Z,101762.81
2023-04-16T09:07:34.079Z,101774.06
2023-04-16T09:10:01.470Z,101776.56
2023-04-16T09:12:27.775Z,101787.81
2023-04-16T09:14:56.850Z,101786.00
2023-04-16T09:17:23.182Z,101785.28
2023-04-16T09:19:49.619Z,101786.16
2023-04-16T09:22:17.130Z,101787.06
2023-04-16T09:24:43.483Z,101789.69
2023-04-16T09:27:09.825Z,101783.66
2023-04-16T09:29:38.367Z,101782.78
2023-04-16T09:32:09.788Z,101789.72
2023-04-16T09:35:00.680Z,101787.13
2023-04-16T09:37:31.855Z,101792.38
2023-04-16T09:40:04.100Z,101791.47
2023-04-16T09:42:33.941Z,101794.97
2023-04-16T09:45:02.011Z,101797.56
2023-04-16T09:47:47.939Z,101801.06
2023-04-16T09:50:19.215Z,101808.00
2023-04-16T09:52:49.535Z,101812.34
2023-04-16T09:55:15.895Z,101809.72
2023-04-16T09:57:42.159Z,101810.66
2023-04-16T10:00:10.087Z,101808.03
2023-04-16T10:02:41.605Z,101820.09
2023-04-16T10:05:08.693Z,101820.09
2023-04-16T10:07:36.782Z,101823.53
2023-04-16T10:10:04.450Z,101827.00
2023-04-16T10:12:32.650Z,101828.75
2023-04-16T10:14:58.960Z,101833.00
2023-04-16T10:17:27.161Z,101839.94
2023-04-16T10:19:54.535Z,101840.81
2023-04-16T10:22:20.916Z,101843.41
2023-04-16T10:24:48.633Z,101839.84
2023-04-16T10:27:14.886Z,101843.38
2023-04-16T10:29:41.389Z,101846.84
2023-04-16T10:32:08.178Z,101846.84
2023-04-16T10:34:35.467Z,101852.94
2023-04-16T10:37:01.809Z,101850.31
2023-04-16T10:39:29.344Z,101856.31
2023-04-16T10:42:12.507Z,101850.31
2023-04-16T10:44:42.560Z,101849.41
2023-04-16T10:47:15.097Z,101852.88
2023-04-16T10:49:42.256Z,101859.66
2023-04-16T10:52:13.440Z,101863.78
2023-04-16T10:54:40.970Z,101863.81
2023-04-16T10:57:10.644Z,101867.34
2023-04-16T10:59:39.473Z,101870.66
2023-04-16T11:02:15.157Z,101866.47
2023-04-16T11:04:46.444Z,101864.84
2023-04-16T11:07:16.358Z,101863.22
2023-04-16T11:09:49.541Z,101869.16
2023-04-16T11:12:20.865Z,101873.63
2023-04-16T11:14:50.399Z,101867.63
2023-04-16T11:17:17.521Z,101876.28
2023-04-16T11:19:44.418Z,101880.66
2023-04-16T11:22:17.054Z,101872.81
2023-04-16T11:24:45.161Z,101879.41
2023-04-16T11:27:13.061Z,101883.88
2023-04-16T11:29:39.826Z,101881.22
2023-04-16T11:32:06.372Z,101887.28
2023-04-16T11:34:33.083Z,101887.34
2023-04-16T11:36:59.773Z,101888.38
2023-04-16T11:39:26.166Z,101881.50
2023-04-16T11:41:52.679Z,101885.03
2023-04-16T11:44:24.652Z,101882.47
2023-04-16T11:46:52.615Z,101883.38
2023-04-16T11:49:27.798Z,101885.03
2023-04-16T11:51:55.159Z,101890.31
2023-04-16T11:54:23.014Z,101880.75
2023-04-16T11:56:50.673Z,101883.38
2023-04-16T11:59:20.030Z,101892.06
2023-04-16T12:01:51.102Z,101891.16
2023-04-16T12:04:20.815Z,101894.56
2023-04-16T12:07:10.825Z,101888.59
2023-04-16T12:09:41.460Z,101892.06
2023-04-16T12:12:30.466Z,101900.78
2023-04-16T12:14:59.427Z,101898.19
2023-04-16T12:17:25.907Z,101896.44
2023-04-16T12:19:56.215Z,101893.81
2023-04-16T12:22:32.656Z,101893.03
2023-04-16T12:25:01.413Z,101893.91
2023-04-16T12:28:02.065Z,101891.22
2023-04-16T12:30:30.790Z,101890.34
2023-04-16T12:33:17.694Z,101890.34
2023-04-16T12:35:44.867Z,101898.09
2023-04-16T12:38:11.877Z,101900.72
2023-04-16T12:40:38.760Z,101899.81
2023-04-16T12:43:05.294Z,101899.75
2023-04-16T12:45:31.707Z,101904.09
2023-04-16T12:47:58.072Z,101896.16
2023-04-16T12:50:24.813Z,101903.97
2023-04-16T12:52:51.510Z,101905.75
2023-04-16T12:55:18.637Z,101911.88
2023-04-16T12:57:45.232Z,101909.34
2023-04-16T13:00:12.518Z,101910.97
2023-04-16T13:02:38.965Z,101909.25
2023-04-16T13:05:05.822Z,101923.13
2023-04-16T13:07:33.868Z,101911.78
2023-04-16T13:10:00.737Z,101912.78
2023-04-16T13:12:27.518Z,101917.00
2023-04-16T13:14:55.360Z,101905.69
2023-04-16T13:17:21.778Z,101904.97
2023-04-16T13:19:48.139Z,101901.63
2023-04-16T13:22:14.521Z,101906.09
2023-04-16T13:24:41.043Z,101912.97
2023-04-16T13:27:08.347Z,101909.50
2023-04-16T13:29:36.560Z,101907.72
2023-04-16T13:32:03.756Z,101919.03
2023-04-16T13:34:30.286Z,101909.47
2023-04-16T13:36:56.595Z,101912.94
2023-04-16T13:39:22.898Z,101911.25
2023-04-16T13:41:50.274Z,101906.88
2023-04-16T13:44:16.583Z,101908.63
2023-04-16T13:46:47.811Z,101903.47
2023-04-16T13:49:14.753Z,101903.47
2023-04-16T13:51:44.622Z,101903.53
2023-04-16T13:54:10.950Z,101896.59
2023-04-16T13:56:37.315Z,101894.88
2023-04-16T13:59:03.669Z,101893.91
2023-04-16T14:01:30.030Z,101897.44
2023-04-16T14:03:56.475Z,101901.81
2023-04-16T14:06:22.930Z,101894.03
2023-04-16T14:08:49.246Z,101899.25
2023-04-16T14:11:15.690Z,101901.84
2023-04-16T14:13:42.076Z,101895.78
2023-04-16T14:16:08.563Z,101896.66
2023-04-16T14:18:35.792Z,101902.75
2023-04-16T14:21:02.183Z,101897.53
2023-04-16T14:23:28.668Z,101894.94
2023-04-16T14:25:55.238Z,101899.28
2023-04-16T14:28:21.548Z,101901.00
2023-04-16T14:30:47.859Z,101900.16
2023-04-16T14:33:14.156Z,101896.69
2023-04-16T14:35:42.776Z,101901.91
2023-04-16T14:38:09.273Z,101901.03
2023-04-16T14:40:36.470Z,101910.63
2023-04-16T14:43:02.996Z,101899.34
2023-04-16T14:45:30.747Z,101906.25
2023-04-16T14:47:57.188Z,101901.09
2023-04-16T14:50:23.606Z,101907.97
2023-04-16T14:52:50.666Z,101904.50
2023-04-16T14:55:17.056Z,101901.91
2023-04-16T14:57:43.459Z,101903.63
2023-04-16T15:00:10.939Z,101907.94
2023-04-16T15:02:37.916Z,101902.78
2023-04-16T15:05:04.708Z,101913.19
2023-04-16T15:07:31.434Z,101912.34
2023-04-16T15:09:59.119Z,101918.41
2023-04-16T15:12:26.346Z,101915.81
2023-04-16T15:14:52.779Z,101911.44
2023-04-16T15:17:20.705Z,101921.88
2023-04-16T15:19:47.573Z,101916.69
2023-04-16T15:22:14.681Z,101917.59
2023-04-16T15:24:41.072Z,101914.06
2023-04-16T15:27:08.985Z,101916.63
2023-04-16T15:29:36.764Z,101920.97
2023-04-16T15:32:03.194Z,101921.00
2023-04-16T15:34:30.239Z,101924.50
2023-04-16T15:36:56.521Z,101920.97
2023-04-16T15:39:22.814Z,101922.75
2023-04-16T15:42:00.804Z,101928.81
2023-04-16T15:44:28.025Z,101927.13
2023-04-16T15:46:54.359Z,101927.06
2023-04-16T15:49:20.772Z,101927.97
2023-04-16T15:51:47.151Z,101939.25
2023-04-16T15:54:13.475Z,101923.63
2023-04-16T15:56:40.091Z,101926.22
2023-04-16T15:59:06.463Z,101933.19
2023-04-16T16:01:32.755Z,101938.41
2023-04-16T16:03:59.265Z,101931.44
2023-04-16T16:06:27.003Z,101931.44
2023-04-16T16:08:54.398Z,101940.09
2023-04-16T16:11:21.717Z,101939.22
2023-04-16T16:13:48.156Z,101944.44
2023-04-16T16:16:14.825Z,101946.03
2023-04-16T16:18:42.010Z,101945.19
2023-04-16T16:21:08.601Z,101948.66
2023-04-16T16:23:35.440Z,101943.44
2023-04-16T16:26:02.081Z,101952.09
2023-04-16T16:28:28.391Z,101957.31
2023-04-16T16:30:55.532Z,101946.84
2023-04-16T16:33:22.281Z,101955.56
2023-04-16T16:35:48.545Z,101953.84
2023-04-16T16:38:15.199Z,101959.94
2023-04-16T16:40:41.523Z,101959.88
2023-04-16T16:43:07.960Z,101970.28
2023-04-16T16:45:34.346Z,101959.84
2023-04-16T16:48:00.873Z,101964.22
2023-04-16T16:50:27.269Z,101966.81
2023-04-16T16:52:53.559Z,101959.94
2023-04-16T16:55:20.809Z,101966.88
2023-04-16T16:57:47.159Z,101958.19
2023-04-16T17:00:15.095Z,101960.72
2023-04-16T17:02:41.632Z,101965.94
2023-04-16T17:05:08.594Z,101966.81
2023-04-16T17:07:34.889Z,101964.19
2023-04-16T17:10:03.160Z,101965.09
2023-04-16T17:12:31.003Z,101971.19
2023-04-16T17:14:57.319Z,101978.13
2023-04-16T17:17:23.775Z,101979.88
2023-04-16T17:19:50.101Z,101986.75
2023-04-16T17:22:16.603Z,101981.53
2023-04-16T17:24:43.285Z,101989.34
2023-04-16T17:27:09.604Z,101989.41
2023-04-16T17:29:36.024Z,101994.47
2023-04-16T17:32:02.412Z,101997.97
2023-04-16T17:34:28.885Z,101998.88
2023-04-16T17:36:55.174Z,102004.97
2023-04-16T17:39:21.466Z,102004.16
2023-04-16T17:41:49.571Z,102011.94
2023-04-16T17:44:16.362Z,102011.03
2023-04-16T17:46:42.861Z,102011.91
2023-04-16T17:49:09.270Z,102011.03
2023-04-16T17:51:35.566Z,102006.66
2023-04-16T17:54:03.300Z,102020.50
2023-04-16T17:56:29.616Z,102022.13
2023-04-16T17:58:56.019Z,102019.53
2023-04-16T18:01:22.306Z,102019.50
2023-04-16T18:03:48.789Z,102026.38
2023-04-16T18:06:15.408Z,102021.16
2023-04-16T18:08:41.685Z,102032.38
2023-04-16T18:11:08.518Z,102034.09
2023-04-16T18:13:35.468Z,102034.13
2023-04-16T18:16:02.476Z,102038.50
2023-04-16T18:18:28.850Z,102037.56
2023-04-16T18:20:55.263Z,102043.66
2023-04-16T18:23:22.041Z,102044.47
2023-04-16T18:25:48.985Z,102047.06
2023-04-16T18:28:15.430Z,102054.09
2023-04-16T18:30:46.409Z,102056.59
2023-04-16T18:33:38.981Z,102051.25
2023-04-16T18:36:02.238Z,102055.63
2023-04-16T18:38:30.503Z,102055.47
2023-04-16T18:40:57.024Z,102054.59
2023-04-16T18:43:23.903Z,102058.94
2023-04-16T18:45:50.236Z,102058.16
2023-04-16T18:48:16.747Z,102063.38
2023-04-16T18:50:43.067Z,102067.69
2023-04-16T18:53:09.412Z,102062.56
2023-04-16T18:55:35.677Z,102073.72
2023-04-16T18:58:02.153Z,102074.56
2023-04-16T19:00:28.633Z,102072.88
2023-04-16T19:02:55.046Z,102077.09
2023-04-16T19:05:21.505Z,102080.53
2023-04-16T19:07:47.771Z,102080.53
2023-04-16T19:10:14.263Z,102080.53
2023-04-16T19:12:40.776Z,102089.22
2023-04-16T19:15:07.628Z,102094.34
2023-04-16T19:17:34.161Z,102093.44
2023-04-16T19:20:00.665Z,102100.34
2023-04-16T19:22:32.966Z,102094.22
2023-04-16T19:24:59.258Z,102101.97
2023-04-16T19:27:29.050Z,102101.22
2023-04-16T19:29:55.452Z,102102.03
2023-04-16T19:32:21.847Z,102102.84
2023-04-16T19:34:48.385Z,102107.09
2023-04-16T19:37:14.905Z,102096.75
2023-04-16T19:39:41.213Z,102107.13
2023-04-16T19:42:07.894Z,102107.75
2023-04-16T19:44:37.303Z,102099.97
2023-04-16T19:47:04.066Z,102119.06
2023-04-16T19:51:56.882Z,102113.91
2023-04-16T19:54:23.608Z,102116.59
2023-04-16T19:56:51.668Z,102117.31
2023-04-16T19:59:18.152Z,102122.38
2023-04-16T20:01:44.993Z,102123.25
2023-04-16T20:04:11.819Z,102120.53
2023-04-16T20:06:38.217Z,102118.75
2023-04-16T20:09:04.808Z,102124.06
2023-04-16T20:11:31.247Z,102124.75
2023-04-16T20:14:00.223Z,102127.25
2023-04-16T20:16:26.683Z,102123.69
2023-04-16T20:18:54.205Z,102123.69
2023-04-16T20:21:21.464Z,102127.16
2023-04-16T20:23:50.527Z,102126.06
2023-04-16T20:26:20.266Z,102134.09
2023-04-16T20:28:46.635Z,102127.44
2023-04-16T20:31:13.179Z,102129.84
2023-04-16T20:33:40.254Z,102133.31
2023-04-16T20:36:07.188Z,102126.47
2023-04-16T20:38:35.342Z,102123.06
2023-04-16T20:41:10.932Z,102121.31
2023-04-16T20:43:43.948Z,102129.94
2023-04-16T20:46:11.751Z,102128.28
2023-04-16T20:48:38.921Z,102126.56
2023-04-16T20:51:07.522Z,102128.38
2023-04-16T20:53:34.015Z,102136.03
2023-04-16T20:56:00.840Z,102123.81
2023-04-16T20:58:27.378Z,102128.06
2023-04-16T21:00:54.890Z,102127.16
2023-04-16T21:03:22.028Z,102136.59
2023-04-16T21:05:53.035Z,102139.25
2023-04-16T21:08:20.618Z,102137.28
2023-04-16T21:10:47.169Z,102137.31
2023-04-16T21:13:13.626Z,102140.75
2023-04-16T21:15:41.712Z,102139.81
2023-04-16T21:18:08.559Z,102143.16
2023-04-16T21:20:35.443Z,102148.19
2023-04-16T21:23:02.582Z,102147.47
2023-04-16T21:25:29.448Z,102148.53
2023-04-16T21:27:55.928Z,102150.28
2023-04-16T21:30:22.525Z,102146.84
2023-04-16T21:32:48.876Z,102144.34
2023-04-16T21:35:15.282Z,102145.84
2023-04-16T21:37:41.626Z,102141.59
2023-04-16T21:40:08.636Z,102142.28
2023-04-16T21:42:39.825Z,102142.47
2023-04-16T21:45:10.659Z,102143.34
2023-04-16T21:47:37.711Z,102141.47
2023-04-16T21:50:04.634Z,102145.84
2023-04-16T21:52:32.574Z,102144.19
2023-04-16T21:54:59.844Z,102149.25
2023-04-16T21:57:26.121Z,102151.06
2023-04-16T21:59:52.451Z,102144.94
2023-04-16T22:02:18.929Z,102147.44
2023-04-16T22:04:45.300Z,102144.06
2023-04-16T22:07:11.855Z,102142.28
2023-04-16T22:09:38.785Z,102144.00
2023-04-16T22:12:11.867Z,102142.47
2023-04-16T22:14:44.085Z,102144.22
2023-04-16T22:17:16.970Z,102145.84
2023-04-16T22:19:44.451Z,102145.94
2023-04-16T22:22:11.062Z,102155.34
2023-04-16T22:24:37.366Z,102151.75
2023-04-16T22:27:03.817Z,102154.44
2023-04-16T22:29:30.171Z,102155.13
2023-04-16T22:31:56.752Z,102152.63
2023-04-16T22:34:23.141Z,102150.06
2023-04-16T22:36:49.589Z,102157.00
2023-04-16T22:39:15.983Z,102160.47
2023-04-16T22:41:42.335Z,102157.94
2023-04-16T22:44:08.648Z,102153.53
2023-04-16T22:46:35.139Z,102155.06
2023-04-16T22:49:01.518Z,102155.25
2023-04-16T22:51:27.826Z,102157.00
2023-04-16T22:53:54.591Z,102156.91
2023-04-16T22:56:21.275Z,102158.53
2023-04-16T22:58:50.637Z,102153.28
2023-04-16T23:01:17.402Z,102158.53
2023-04-16T23:03:43.831Z,102155.00
2023-04-16T23:06:10.232Z,102156.78
2023-04-16T23:08:36.508Z,102152.38
2023-04-16T23:11:02.823Z,102149.00
2023-04-16T23:13:29.128Z,102158.66
2023-04-16T23:15:55.565Z,102155.06
2023-04-16T23:18:21.999Z,102151.69
2023-04-16T23:20:51.670Z,102149.97
2023-04-16T23:23:18.227Z,102150.78
2023-04-16T23:25:44.515Z,102152.56
2023-04-16T23:28:10.816Z,102154.34
2023-04-16T23:30:37.273Z,102160.41
2023-04-16T23:33:04.400Z,102156.13
2023-04-16T23:35:30.845Z,102148.38
2023-04-16T23:37:57.127Z,102151.78
2023-04-16T23:40:23.423Z,102143.97
2023-04-16T23:42:49.706Z,102149.09
2023-04-16T23:45:16.052Z,102147.28
2023-04-16T23:47:42.558Z,102142.91
2023-04-16T23:50:08.988Z,102146.34
2023-04-16T23:52:35.612Z,102150.63
2023-04-16T23:55:01.936Z,102143.56
2023-04-16T23:57:28.264Z,102145.28
2023-04-16T23:59:54.573Z,102142.69
